createdAt,value
2023-04-03T00:01:18.550Z,5.10
2023-04-03T00:03:45.523Z,4.67
2023-04-03T00:06:13.771Z,4.70
2023-04-03T00:08:41.733Z,4.40
2023-04-03T00:11:09.542Z,5.40
2023-04-03T00:13:37.885Z,5.17
2023-04-03T00:16:05.318Z,4.57
2023-04-03T00:18:32.878Z,5.30
2023-04-03T00:20:59.726Z,5.47
2023-04-03T00:23:26.707Z,4.43
2023-04-03T00:25:54.460Z,4.27
2023-04-03T00:28:21.507Z,5.10
2023-04-03T00:30:51.271Z,4.20
2023-04-03T00:33:18.821Z,5.80
2023-04-03T00:35:45.809Z,4.70
2023-04-03T00:38:12.790Z,5.50
2023-04-03T00:40:45.478Z,5.57
2023-04-03T00:43:23.579Z,5.80
2023-04-03T00:45:53.851Z,5.07
2023-04-03T00:48:47.704Z,4.80
2023-04-03T00:51:24.164Z,5.33
2023-04-03T00:54:00.636Z,6.23
2023-04-03T00:56:29.717Z,4.67
2023-04-03T00:59:07.402Z,5.00
2023-04-03T01:01:34.402Z,5.67
2023-04-03T01:04:03.137Z,4.93
2023-04-03T01:06:35.300Z,5.60
2023-04-03T01:09:02.862Z,5.00
2023-04-03T01:11:29.844Z,5.00
2023-04-03T01:13:56.879Z,5.40
2023-04-03T01:16:23.772Z,4.97
2023-04-03T01:18:50.753Z,5.10
2023-04-03T01:21:44.933Z,5.63
2023-04-03T01:24:33.918Z,4.40
2023-04-03T01:27:02.856Z,5.27
2023-04-03T01:29:29.652Z,5.73
2023-04-03T01:32:00.677Z,5.07
2023-04-03T01:34:29.430Z,4.23
2023-04-03T01:36:56.547Z,4.30
2023-04-03T01:39:23.930Z,5.20
2023-04-03T01:41:51.270Z,4.63
2023-04-03T01:44:18.123Z,5.13
2023-04-03T01:46:45.020Z,4.93
2023-04-03T01:49:11.997Z,6.20
2023-04-03T01:51:38.825Z,5.80
2023-04-03T01:54:05.725Z,5.70
2023-04-03T01:56:32.567Z,5.60
2023-04-03T01:58:59.505Z,5.23
2023-04-03T02:01:26.353Z,5.23
2023-04-03T02:03:53.280Z,5.40
2023-04-03T02:06:20.135Z,5.30
2023-04-03T02:08:47.027Z,5.20
2023-04-03T02:11:13.843Z,4.60
2023-04-03T02:13:40.635Z,5.30
2023-04-03T02:16:10.244Z,5.10
2023-04-03T02:18:38.348Z,4.83
2023-04-03T02:21:05.723Z,4.87
2023-04-03T02:23:32.684Z,4.73
2023-04-03T02:26:12.276Z,5.47
2023-04-03T02:28:40.090Z,5.00
2023-04-03T02:31:08.490Z,4.30
2023-04-03T02:33:37.001Z,4.50
2023-04-03T02:36:06.795Z,4.73
2023-04-03T02:38:34.437Z,4.50
2023-04-03T02:41:03.645Z,4.97
2023-04-03T02:43:30.516Z,4.40
2023-04-03T02:45:57.376Z,3.83
2023-04-03T02:48:24.979Z,5.60
2023-04-03T02:50:52.209Z,4.20
2023-04-03T02:53:19.943Z,3.73
2023-04-03T02:55:47.205Z,4.07
2023-04-03T02:58:14.105Z,4.60
2023-04-03T03:00:41.316Z,4.53
2023-04-03T03:03:08.767Z,4.47
2023-04-03T03:05:35.642Z,4.60
2023-04-03T03:08:02.699Z,4.23
2023-04-03T03:10:29.541Z,4.17
2023-04-03T03:12:56.397Z,3.80
2023-04-03T03:15:23.228Z,4.17
2023-04-03T03:17:50.147Z,3.73
2023-04-03T03:20:17.184Z,3.60
2023-04-03T03:22:44.029Z,4.53
2023-04-03T03:25:11.019Z,4.30
2023-04-03T03:27:37.927Z,4.27
2023-04-03T03:30:06.781Z,3.87
2023-04-03T03:32:33.733Z,4.30
2023-04-03T03:35:00.679Z,3.83
2023-04-03T03:37:27.474Z,4.40
2023-04-03T03:39:54.275Z,4.97
2023-04-03T03:42:21.092Z,5.10
2023-04-03T03:44:47.895Z,5.00
2023-04-03T03:47:14.790Z,4.37
2023-04-03T03:49:41.717Z,4.93
2023-04-03T03:52:08.497Z,5.23
2023-04-03T03:54:35.288Z,4.70
2023-04-03T03:57:02.107Z,5.63
2023-04-03T03:59:29.143Z,4.53
2023-04-03T04:01:56.036Z,17.53
2023-04-03T04:04:23.068Z,7.77
2023-04-03T04:06:50.039Z,5.80
2023-04-03T04:09:17.004Z,5.27
2023-04-03T04:11:43.751Z,6.20
2023-04-03T04:14:10.563Z,5.53
2023-04-03T04:16:37.441Z,4.90
2023-04-03T04:19:06.682Z,5.63
2023-04-03T04:21:34.475Z,4.80
2023-04-03T04:24:01.303Z,6.57
2023-04-03T04:26:28.165Z,5.73
2023-04-03T04:28:55.012Z,5.30
2023-04-03T04:31:21.929Z,5.50
2023-04-03T04:33:48.800Z,5.70
2023-04-03T04:36:15.862Z,5.37
2023-04-03T04:38:43.597Z,5.80
2023-04-03T04:41:10.461Z,5.63
2023-04-03T04:43:37.428Z,5.20
2023-04-03T04:46:10.643Z,4.97
2023-04-03T04:48:37.537Z,5.40
2023-04-03T04:51:05.302Z,5.40
2023-04-03T04:53:32.135Z,5.40
2023-04-03T04:55:59.164Z,5.50
2023-04-03T04:58:26.173Z,5.80
2023-04-03T05:01:03.914Z,5.13
2023-04-03T05:03:30.803Z,6.10
2023-04-03T05:05:57.735Z,5.70
2023-04-03T05:08:24.586Z,5.57
2023-04-03T05:10:52.758Z,5.50
2023-04-03T05:13:21.699Z,5.67
2023-04-03T05:15:48.943Z,5.20
2023-04-03T05:18:15.953Z,5.83
2023-04-03T05:20:42.787Z,5.50
2023-04-03T05:23:11.990Z,5.73
2023-04-03T05:25:40.189Z,5.93
2023-04-03T05:28:08.077Z,6.27
2023-04-03T05:30:34.908Z,6.20
2023-04-03T05:33:01.830Z,5.50
2023-04-03T05:35:28.683Z,6.23
2023-04-03T05:37:55.725Z,6.77
2023-04-03T05:40:22.870Z,5.40
2023-04-03T05:42:49.960Z,5.77
2023-04-03T05:45:17.285Z,6.60
2023-04-03T05:47:44.200Z,5.83
2023-04-03T05:50:11.336Z,5.37
2023-04-03T05:52:41.838Z,6.40
2023-04-03T05:55:09.759Z,5.80
2023-04-03T05:57:36.910Z,6.57
2023-04-03T06:00:07.769Z,4.77
2023-04-03T06:02:34.625Z,5.90
2023-04-03T06:05:01.614Z,5.37
2023-04-03T06:07:29.032Z,5.93
2023-04-03T06:09:58.424Z,5.70
2023-04-03T06:12:25.571Z,7.83
2023-04-03T06:14:52.438Z,5.10
2023-04-03T06:17:19.705Z,6.13
2023-04-03T06:19:47.504Z,4.63
2023-04-03T06:22:15.044Z,5.17
2023-04-03T06:24:41.973Z,6.13
2023-04-03T06:27:10.509Z,6.07
2023-04-03T06:29:37.334Z,6.03
2023-04-03T06:32:04.371Z,5.50
2023-04-03T06:34:31.157Z,20.13
2023-04-03T06:36:57.945Z,8.20
2023-04-03T06:39:25.343Z,6.80
2023-04-03T06:41:52.892Z,6.60
2023-04-03T06:44:20.091Z,7.60
2023-04-03T06:46:47.021Z,7.17
2023-04-03T06:49:14.346Z,6.23
2023-04-03T06:51:41.236Z,6.20
2023-04-03T06:54:08.516Z,6.60
2023-04-03T06:56:35.990Z,9.13
2023-04-03T06:59:03.827Z,6.00
2023-04-03T07:01:31.607Z,5.90
2023-04-03T07:03:59.145Z,6.10
2023-04-03T07:06:26.216Z,5.83
2023-04-03T07:08:53.099Z,4.47
2023-04-03T07:11:19.980Z,4.93
2023-04-03T07:13:47.162Z,11.27
2023-04-03T07:16:14.038Z,14.80
2023-04-03T07:18:41.005Z,11.83
2023-04-03T07:21:08.047Z,7.13
2023-04-03T07:23:35.241Z,4.30
2023-04-03T07:26:02.080Z,4.20
2023-04-03T07:28:29.348Z,3.20
2023-04-03T07:31:02.893Z,2.73
2023-04-03T07:33:30.297Z,2.90
2023-04-03T07:35:57.209Z,2.60
2023-04-03T07:38:24.152Z,3.40
2023-04-03T07:40:52.455Z,2.30
2023-04-03T07:43:21.239Z,2.37
2023-04-03T07:45:49.576Z,2.93
2023-04-03T07:48:22.884Z,3.20
2023-04-03T07:50:50.873Z,2.80
2023-04-03T07:53:18.258Z,3.03
2023-04-03T07:55:49.432Z,3.00
2023-04-03T07:58:19.968Z,3.60
2023-04-03T08:00:46.913Z,2.97
2023-04-03T08:03:15.723Z,3.07
2023-04-03T08:05:46.785Z,3.03
2023-04-03T08:08:18.633Z,3.90
2023-04-03T08:10:52.299Z,3.67
2023-04-03T08:13:20.944Z,3.47
2023-04-03T08:15:48.443Z,3.70
2023-04-03T08:18:16.524Z,3.63
2023-04-03T08:20:43.803Z,3.30
2023-04-03T08:23:11.624Z,3.30
2023-04-03T08:25:43.087Z,3.53
2023-04-03T08:28:12.535Z,3.63
2023-04-03T08:30:43.813Z,4.13
2023-04-03T08:33:11.739Z,3.70
2023-04-03T08:35:43.353Z,4.10
2023-04-03T08:38:11.675Z,4.17
2023-04-03T08:40:39.677Z,4.63
2023-04-03T08:43:48.231Z,4.30
2023-04-03T08:46:15.934Z,4.23
2023-04-03T08:48:44.605Z,3.90
2023-04-03T08:51:19.714Z,5.23
2023-04-03T08:54:01.265Z,5.20
2023-04-03T08:56:28.495Z,4.97
2023-04-03T08:59:06.715Z,5.13
2023-04-03T09:01:40.649Z,4.90
2023-04-03T09:04:19.179Z,5.03
2023-04-03T09:07:03.684Z,5.30
2023-04-03T09:09:42.429Z,5.53
2023-04-03T09:12:52.884Z,5.20
2023-04-03T09:15:31.270Z,5.27
2023-04-03T09:18:16.570Z,4.93
2023-04-03T09:21:07.241Z,5.60
2023-04-03T09:23:47.902Z,4.80
2023-04-03T09:26:29.473Z,5.83
2023-04-03T09:29:03.729Z,5.10
2023-04-03T09:31:44.108Z,5.40
2023-04-03T09:34:27.769Z,5.63
2023-04-03T09:37:02.069Z,5.77
2023-04-03T09:39:30.815Z,5.67
2023-04-03T09:42:04.865Z,5.17
2023-04-03T09:44:38.411Z,5.40
2023-04-03T09:47:24.455Z,4.87
2023-04-03T09:49:51.423Z,4.93
2023-04-03T09:52:26.975Z,4.77
2023-04-03T09:54:53.887Z,4.60
2023-04-03T09:57:20.823Z,4.20
2023-04-03T09:59:59.488Z,5.60
2023-04-03T10:02:40.350Z,5.60
2023-04-03T10:05:27.736Z,4.37
2023-04-03T10:08:10.575Z,5.63
2023-04-03T10:10:39.136Z,3.20
2023-04-03T10:13:19.221Z,2.80
2023-04-03T10:16:06.439Z,2.30
2023-04-03T10:18:54.446Z,3.47
2023-04-03T10:21:30.201Z,3.23
2023-04-03T10:24:45.379Z,2.33
2023-04-03T10:27:19.594Z,2.97
2023-04-03T10:30:10.524Z,3.80
2023-04-03T10:33:06.669Z,2.87
2023-04-03T10:36:09.416Z,2.70
2023-04-03T10:39:09.641Z,2.97
2023-04-03T10:42:13.336Z,3.20
2023-04-03T10:45:04.915Z,2.20
2023-04-03T10:47:43.652Z,2.50
2023-04-03T10:50:50.061Z,2.60
2023-04-03T10:53:54.050Z,3.07
2023-04-03T10:56:39.510Z,2.10
2023-04-03T10:59:25.309Z,2.33
2023-04-03T11:01:58.106Z,2.23
2023-04-03T11:04:31.413Z,2.20
2023-04-03T11:07:37.895Z,2.20
2023-04-03T11:10:16.026Z,2.03
2023-04-03T11:12:48.200Z,2.10
2023-04-03T11:15:19.331Z,3.67
2023-04-03T11:18:02.842Z,2.33
2023-04-03T11:20:34.604Z,2.07
2023-04-03T11:23:23.515Z,2.00
2023-04-03T11:25:54.612Z,2.53
2023-04-03T11:28:23.012Z,2.17
2023-04-03T11:31:20.930Z,1.90
2023-04-03T11:34:06.975Z,2.23
2023-04-03T11:36:47.640Z,1.97
2023-04-03T11:39:25.319Z,2.83
2023-04-03T11:42:00.263Z,2.23
2023-04-03T11:44:38.064Z,2.63
2023-04-03T11:47:07.918Z,2.57
2023-04-03T11:50:05.366Z,2.10
2023-04-03T11:53:02.948Z,2.10
2023-04-03T11:55:49.205Z,2.10
2023-04-03T11:58:36.953Z,3.30
2023-04-03T12:01:06.107Z,2.30
2023-04-03T12:03:42.030Z,1.90
2023-04-03T12:06:09.068Z,2.40
2023-04-03T12:08:41.882Z,3.27
2023-04-03T12:11:11.638Z,1.80
2023-04-03T12:13:50.246Z,3.20
2023-04-03T12:16:54.487Z,2.70
2023-04-03T12:19:42.962Z,2.63
2023-04-03T12:22:20.203Z,2.93
2023-04-03T12:24:53.838Z,3.90
2023-04-03T12:27:36.144Z,2.73
2023-04-03T12:30:14.938Z,3.27
2023-04-03T12:32:48.324Z,2.70
2023-04-03T12:35:38.824Z,3.60
2023-04-03T12:38:43.352Z,3.20
2023-04-03T12:41:38.870Z,3.47
2023-04-03T12:44:45.386Z,3.20
2023-04-03T12:47:27.700Z,3.77
2023-04-03T12:49:56.285Z,3.10
2023-04-03T12:53:05.591Z,3.23
2023-04-03T12:55:32.750Z,3.70
2023-04-03T12:58:23.351Z,3.57
2023-04-03T13:01:12.988Z,3.20
2023-04-03T13:03:44.682Z,2.90
2023-04-03T13:06:23.025Z,2.67
2023-04-03T13:09:01.792Z,2.77
2023-04-03T13:11:36.377Z,3.03
2023-04-03T13:14:16.995Z,3.03
2023-04-03T13:16:59.250Z,2.80
2023-04-03T13:19:29.932Z,3.60
2023-04-03T13:22:30.116Z,2.93
2023-04-03T13:25:03.523Z,3.43
2023-04-03T13:27:33.590Z,3.00
2023-04-03T13:30:05.079Z,3.43
2023-04-03T13:32:33.205Z,3.20
2023-04-03T13:35:15.452Z,3.20
2023-04-03T13:38:02.378Z,2.60
2023-04-03T13:40:32.461Z,3.03
2023-04-03T13:43:30.090Z,3.10
2023-04-03T13:46:26.365Z,2.70
2023-04-03T13:48:57.311Z,3.07
2023-04-03T13:51:31.490Z,2.90
2023-04-03T13:54:02.543Z,3.23
2023-04-03T13:56:37.320Z,3.30
2023-04-03T13:59:12.991Z,3.30
2023-04-03T14:02:04.260Z,2.90
2023-04-03T14:04:54.887Z,3.30
2023-04-03T14:07:21.848Z,2.90
2023-04-03T14:09:49.741Z,3.00
2023-04-03T14:12:31.392Z,3.57
2023-04-03T14:15:09.384Z,3.50
2023-04-03T14:17:36.227Z,3.63
2023-04-03T14:20:04.306Z,4.00
2023-04-03T14:22:33.968Z,3.53
2023-04-03T14:25:01.260Z,3.10
2023-04-03T14:27:40.060Z,2.87
2023-04-03T14:30:33.075Z,3.30
2023-04-03T14:33:01.172Z,3.70
2023-04-03T14:35:29.537Z,3.07
2023-04-03T14:37:56.843Z,2.80
2023-04-03T14:40:28.345Z,2.40
2023-04-03T14:42:55.840Z,2.37
2023-04-03T14:45:24.206Z,3.23
2023-04-03T14:47:55.774Z,3.07
2023-04-03T14:50:27.354Z,2.70
2023-04-03T14:52:58.892Z,3.17
2023-04-03T14:55:26.766Z,3.63
2023-04-03T14:57:55.051Z,2.83
2023-04-03T15:00:24.088Z,2.90
2023-04-03T15:02:52.042Z,3.50
2023-04-03T15:05:19.490Z,3.67
2023-04-03T15:07:56.917Z,4.23
2023-04-03T15:10:29.943Z,3.70
2023-04-03T15:12:57.648Z,3.50
2023-04-03T15:15:28.091Z,3.10
2023-04-03T15:17:57.014Z,3.43
2023-04-03T15:20:27.272Z,3.87
2023-04-03T15:22:55.099Z,3.80
2023-04-03T15:25:21.976Z,3.90
2023-04-03T15:27:48.785Z,3.40
2023-04-03T15:30:20.269Z,3.47
2023-04-03T15:32:47.955Z,3.20
2023-04-03T15:35:15.392Z,4.10
2023-04-03T15:37:42.872Z,4.33
2023-04-03T15:40:11.229Z,3.57
2023-04-03T15:42:39.046Z,3.20
2023-04-03T15:45:07.385Z,3.37
2023-04-03T15:47:34.430Z,3.90
2023-04-03T15:50:01.673Z,3.13
2023-04-03T15:52:28.753Z,3.50
2023-04-03T15:54:55.647Z,4.13
2023-04-03T15:57:22.554Z,3.47
2023-04-03T15:59:49.402Z,3.10
2023-04-03T16:02:16.312Z,3.30
2023-04-03T16:04:43.346Z,3.80
2023-04-03T16:07:10.315Z,3.70
2023-04-03T16:09:37.756Z,3.23
2023-04-03T16:12:05.025Z,3.80
2023-04-03T16:14:31.896Z,5.63
2023-04-03T16:17:01.191Z,3.30
2023-04-03T16:19:28.086Z,4.37
2023-04-03T16:21:56.422Z,4.17
2023-04-03T16:24:23.741Z,3.83
2023-04-03T16:26:50.576Z,4.20
2023-04-03T16:29:17.387Z,3.80
2023-04-03T16:31:44.325Z,3.63
2023-04-03T16:34:11.333Z,4.30
2023-04-03T16:36:38.238Z,3.60
2023-04-03T16:39:05.320Z,4.20
2023-04-03T16:41:32.438Z,4.37
2023-04-03T16:43:59.287Z,4.00
2023-04-03T16:46:26.158Z,4.33
2023-04-03T16:48:53.078Z,3.90
2023-04-03T16:51:19.952Z,3.53
2023-04-03T16:53:46.769Z,4.23
2023-04-03T16:56:13.650Z,4.07
2023-04-03T16:58:40.547Z,4.20
2023-04-03T17:01:17.729Z,3.87
2023-04-03T17:03:44.831Z,4.03
2023-04-03T17:06:16.365Z,4.03
2023-04-03T17:08:45.214Z,3.83
2023-04-03T17:11:12.343Z,3.60
2023-04-03T17:13:39.256Z,3.57
2023-04-03T17:16:10.298Z,3.90
2023-04-03T17:18:37.581Z,4.10
2023-04-03T17:21:05.246Z,4.40
2023-04-03T17:23:32.878Z,4.27
2023-04-03T17:25:59.670Z,4.07
2023-04-03T17:28:26.570Z,4.00
2023-04-03T17:30:53.345Z,4.53
2023-04-03T17:33:20.233Z,4.90
2023-04-03T17:35:47.109Z,4.97
2023-04-03T17:38:14.048Z,4.30
2023-04-03T17:40:41.269Z,3.60
2023-04-03T17:43:08.159Z,4.00
2023-04-03T17:45:34.989Z,3.63
2023-04-03T17:48:01.795Z,3.73
2023-04-03T17:50:28.670Z,4.30
2023-04-03T17:52:55.812Z,3.50
2023-04-03T17:55:23.682Z,3.60
2023-04-03T17:57:50.536Z,4.20
2023-04-03T18:00:18.149Z,5.00
2023-04-03T18:02:45.062Z,3.67
2023-04-03T18:05:12.733Z,4.20
2023-04-03T18:07:41.581Z,3.90
2023-04-03T18:10:09.630Z,5.10
2023-04-03T18:12:37.219Z,4.90
2023-04-03T18:15:05.842Z,4.20
2023-04-03T18:17:32.726Z,4.63
2023-04-03T18:20:00.373Z,4.40
2023-04-03T18:22:27.389Z,4.30
2023-04-03T18:24:54.739Z,4.17
2023-04-03T18:27:25.801Z,5.20
2023-04-03T18:29:58.819Z,4.77
2023-04-03T18:32:26.697Z,4.83
2023-04-03T18:34:53.535Z,4.07
2023-04-03T18:37:20.521Z,4.50
2023-04-03T18:39:47.529Z,4.67
2023-04-03T18:42:19.463Z,4.23
2023-04-03T18:44:51.797Z,4.20
2023-04-03T18:47:19.014Z,4.07
2023-04-03T18:49:45.818Z,5.27
2023-04-03T18:52:13.234Z,3.77
2023-04-03T18:54:39.994Z,4.60
2023-04-03T18:57:07.466Z,4.27
2023-04-03T18:59:34.930Z,3.80
2023-04-03T19:02:01.824Z,4.20
2023-04-03T19:04:29.931Z,4.60
2023-04-03T19:06:56.988Z,4.43
2023-04-03T19:09:26.027Z,4.40
2023-04-03T19:11:53.940Z,4.30
2023-04-03T19:14:21.072Z,4.00
2023-04-03T19:16:47.926Z,4.10
2023-04-03T19:19:14.766Z,4.00
2023-04-03T19:21:41.810Z,4.60
2023-04-03T19:24:11.355Z,4.20
2023-04-03T19:26:39.096Z,4.40
2023-04-03T19:29:06.114Z,3.90
2023-04-03T19:31:34.100Z,3.83
2023-04-03T19:34:01.319Z,4.23
2023-04-03T19:36:29.114Z,4.47
2023-04-03T19:38:56.279Z,4.30
2023-04-03T19:41:30.123Z,3.87
2023-04-03T19:43:57.581Z,4.00
2023-04-03T19:46:29.872Z,4.57
2023-04-03T19:48:57.415Z,4.80
2023-04-03T19:51:24.389Z,4.30
2023-04-03T19:53:52.935Z,4.20
2023-04-03T19:56:19.977Z,3.90
2023-04-03T19:58:47.025Z,4.10
2023-04-03T20:01:13.824Z,4.30
2023-04-03T20:03:40.749Z,3.90
2023-04-03T20:06:07.548Z,4.10
2023-04-03T20:08:34.367Z,4.47
2023-04-03T20:11:01.249Z,3.70
2023-04-03T20:13:28.032Z,4.07
2023-04-03T20:15:54.875Z,3.43
2023-04-03T20:18:22.049Z,3.57
2023-04-03T20:21:02.842Z,4.20
2023-04-03T20:23:31.061Z,4.20
2023-04-03T20:26:10.937Z,3.80
2023-04-03T20:28:42.249Z,3.97
2023-04-03T20:31:09.604Z,3.80
2023-04-03T20:33:36.526Z,4.33
2023-04-03T20:36:03.561Z,4.07
2023-04-03T20:38:30.443Z,4.70
2023-04-03T20:40:57.315Z,3.43
2023-04-03T20:43:24.125Z,4.00
2023-04-03T20:45:51.582Z,4.37
2023-04-03T20:48:19.445Z,3.67
2023-04-03T20:50:46.910Z,3.70
2023-04-03T20:53:15.145Z,4.00
2023-04-03T20:55:42.409Z,3.97
2023-04-03T20:58:09.792Z,4.10
2023-04-03T21:00:36.665Z,4.10
2023-04-03T21:03:03.905Z,4.00
2023-04-03T21:05:30.833Z,4.10
2023-04-03T21:08:53.883Z,4.80
2023-04-03T21:12:17.259Z,4.10
2023-04-03T21:15:40.110Z,4.23
2023-04-03T21:18:06.994Z,3.70
2023-04-03T21:20:33.975Z,3.90
2023-04-03T21:23:01.740Z,3.70
2023-04-03T21:25:28.718Z,4.07
2023-04-03T21:27:55.875Z,3.60
2023-04-03T21:30:22.845Z,3.80
2023-04-03T21:32:49.840Z,4.10
2023-04-03T21:35:16.770Z,3.87
2023-04-03T21:37:43.649Z,3.03
2023-04-03T21:40:10.892Z,3.50
2023-04-03T21:42:37.711Z,4.37
2023-04-03T21:45:05.197Z,3.17
2023-04-03T21:47:32.148Z,3.73
2023-04-03T21:49:59.012Z,3.80
2023-04-03T21:52:25.906Z,3.73
2023-04-03T21:54:52.761Z,3.73
2023-04-03T21:57:21.004Z,3.57
2023-04-03T21:59:48.015Z,4.20
2023-04-03T22:02:14.849Z,3.43
2023-04-03T22:04:41.700Z,3.77
2023-04-03T22:07:08.500Z,3.53
2023-04-03T22:09:35.329Z,4.07
2023-04-03T22:12:02.169Z,3.83
2023-04-03T22:14:29.190Z,3.57
2023-04-03T22:16:55.990Z,4.40
2023-04-03T22:19:23.083Z,3.93
2023-04-03T22:21:49.898Z,4.23
2023-04-03T22:24:18.317Z,3.90
2023-04-03T22:26:45.176Z,4.70
2023-04-03T22:29:12.245Z,4.40
2023-04-03T22:31:39.565Z,4.10
2023-04-03T22:34:06.485Z,2.93
2023-04-03T22:36:33.327Z,3.97
2023-04-03T22:39:00.447Z,4.17
2023-04-03T22:41:27.267Z,3.70
2023-04-03T22:43:54.126Z,3.43
2023-04-03T22:46:21.012Z,3.40
2023-04-03T22:48:47.856Z,3.47
2023-04-03T22:51:14.681Z,3.00
2023-04-03T22:53:41.543Z,3.00
2023-04-03T22:56:09.125Z,3.13
2023-04-03T22:58:36.123Z,3.40
2023-04-03T23:01:06.494Z,3.27
2023-04-03T23:03:35.572Z,3.03
2023-04-03T23:06:07.700Z,3.07
2023-04-03T23:08:36.205Z,2.57
2023-04-03T23:11:03.306Z,3.17
2023-04-03T23:13:30.392Z,3.20
2023-04-03T23:15:59.904Z,2.87
2023-04-03T23:18:28.613Z,3.60
2023-04-03T23:20:55.745Z,2.93
2023-04-03T23:23:23.167Z,3.17
2023-04-03T23:25:58.551Z,3.17
2023-04-03T23:28:26.293Z,3.73
2023-04-03T23:31:04.529Z,3.60
2023-04-03T23:33:33.089Z,3.30
2023-04-03T23:36:05.814Z,3.20
2023-04-03T23:38:32.773Z,3.60
2023-04-03T23:40:59.708Z,2.83
2023-04-03T23:43:26.523Z,3.47
2023-04-03T23:45:54.652Z,3.67
2023-04-03T23:48:21.513Z,3.23
2023-04-03T23:50:48.352Z,4.43
2023-04-03T23:53:15.155Z,3.43
2023-04-03T23:55:42.141Z,3.70
2023-04-03T23:58:09.290Z,3.17
